Time;durP1;ratioP1;P1;durP2;ratioP2;P2;SDS_P1;SDS_P2;PMS_P1;PMS_P2;Temp;Humidity;BMP_temperature;BMP_pressure;BME280_temperature;BME280_humidity;BME280_pressure;Samples;Min_cycle;Max_cycle;Signal;HPM_P1;HPM_P2
2021/03/19 00:01:37;;;;;;;14.25;6.17;;;;;;;24.37;33.61;157549.66;1710144;82;21348;-81
2021/03/19 00:04:10;;;;;;;11.50;5.65;;;;;;;24.35;33.63;157545.69;1736411;82;21182;-80
2021/03/19 00:06:42;;;;;;;9.98;5.10;;;;;;;24.35;33.62;157544.33;1736309;82;21178;-81
2021/03/19 00:09:15;;;;;;;9.75;5.22;;;;;;;24.34;33.57;157543.03;1716904;82;21178;-81
2021/03/19 00:11:47;;;;;;;9.35;5.05;;;;;;;24.30;33.60;157532.41;1696880;84;21648;-81
2021/03/19 00:14:20;;;;;;;9.38;4.85;;;;;;;24.26;33.66;157521.78;1696216;84;21219;-81
2021/03/19 00:16:53;;;;;;;8.88;5.03;;;;;;;24.25;33.67;157517.81;1707182;82;21175;-81
2021/03/19 00:19:26;;;;;;;8.88;5.30;;;;;;;24.26;33.66;157521.78;1690544;83;21304;-81
2021/03/19 00:21:58;;;;;;;9.70;4.80;;;;;;;24.28;33.68;157527.09;1674381;85;21194;-81
2021/03/19 00:24:31;;;;;;;7.17;4.37;;;;;;;24.29;33.54;157529.75;1688103;84;21195;-81
2021/03/19 00:27:04;;;;;;;9.03;4.53;;;;;;;24.27;33.56;157524.44;1732214;82;21698;-81
2021/03/19 00:29:36;;;;;;;6.92;4.55;;;;;;;24.23;33.54;157512.50;1728573;82;21258;-80
2021/03/19 00:32:08;;;;;;;6.30;4.47;;;;;;;24.21;33.58;157507.19;1676983;85;21217;-80
2021/03/19 00:34:42;;;;;;;10.28;4.40;;;;;;;24.21;33.56;157508.53;1723901;83;21821;-81
2021/03/19 00:37:14;;;;;;;9.98;4.80;;;;;;;24.17;33.52;157497.91;1733275;83;21325;-81
2021/03/19 00:39:47;;;;;;;10.05;4.42;;;;;;;24.14;33.58;157488.64;1736459;82;21161;-81
2021/03/19 00:42:19;;;;;;;9.43;4.55;;;;;;;24.14;33.54;157489.94;1764435;81;21167;-80
2021/03/19 00:44:52;;;;;;;7.12;4.08;;;;;;;24.11;33.65;157480.66;1765104;81;21733;-81
2021/03/19 00:47:25;;;;;;;8.03;4.45;;;;;;;24.22;33.53;157511.19;1744104;81;21182;-81
2021/03/19 00:49:58;;;;;;;6.75;4.80;;;;;;;24.24;33.50;157515.16;1764973;81;21348;-81
2021/03/19 00:52:30;;;;;;;12.03;4.55;;;;;;;24.27;33.51;157524.44;1764996;81;21325;-81
2021/03/19 00:55:08;;;;;;;5.87;3.65;;;;;;;24.16;33.62;157493.95;1740819;81;21299;-81
2021/03/19 00:57:41;;;;;;;7.40;4.37;;;;;;;24.10;33.71;157479.36;1745409;80;21181;-80
2021/03/19 01:00:14;;;;;;;7.40;4.58;;;;;;;24.05;33.67;157464.78;1785424;80;21317;-81
2021/03/19 01:02:47;;;;;;;10.05;5.22;;;;;;;24.02;33.68;157458.11;1742392;82;21185;-82
2021/03/19 01:05:22;;;;;;;7.42;4.35;;;;;;;24.03;33.70;157460.77;1741285;81;21151;-81
2021/03/19 01:07:55;;;;;;;6.30;4.22;;;;;;;23.98;33.74;157446.19;1710267;82;21702;-81
2021/03/19 01:10:37;;;;;;;9.85;4.85;;;;;;;23.96;33.86;157440.88;1736596;82;21209;-81
2021/03/19 01:13:10;;;;;;;7.97;5.15;;;;;;;23.97;33.82;157444.88;1738708;82;21685;-81
2021/03/19 01:15:43;;;;;;;9.13;5.58;;;;;;;23.97;33.87;157444.88;1733858;83;21215;-81
2021/03/19 01:18:18;;;;;;;10.93;5.65;;;;;;;23.95;33.88;157438.27;1734411;82;21156;-81
2021/03/19 01:20:51;;;;;;;18.92;7.20;;;;;;;23.91;33.99;157427.64;1731477;81;21316;-81
2021/03/19 01:23:23;;;;;;;16.07;7.08;;;;;;;24.00;33.85;157452.84;1750668;81;21199;-81
2021/03/19 01:25:55;;;;;;;8.55;6.12;;;;;;;23.89;33.96;157423.69;1764907;81;21717;-81
2021/03/19 01:28:28;;;;;;;9.55;5.50;;;;;;;23.86;33.86;157415.72;1754690;81;21233;-81
2021/03/19 01:31:02;;;;;;;12.93;6.50;;;;;;;23.82;33.90;157405.09;1717175;83;21178;-81
2021/03/19 01:33:35;;;;;;;9.25;5.67;;;;;;;23.76;33.94;157387.84;1720894;82;21174;-81
2021/03/19 01:36:08;;;;;;;9.43;5.25;;;;;;;23.62;34.12;157350.66;1739318;82;21166;-80
2021/03/19 01:38:42;;;;;;;15.45;5.90;;;;;;;23.98;33.86;157446.19;1739687;82;21352;-80
2021/03/19 01:41:14;;;;;;;15.75;6.40;;;;;;;24.23;33.52;157513.86;1741480;81;21182;-81
2021/03/19 01:44:04;;;;;;;17.87;6.28;;;;;;;24.28;33.52;157525.78;1729824;81;21716;-80
2021/03/19 01:47:31;;;;;;;13.50;7.22;;;;;;;24.32;33.48;157536.36;1727090;83;21756;-81
2021/03/19 01:50:58;;;;;;;13.60;6.53;;;;;;;24.38;33.35;157553.61;1721102;83;21305;-82
2021/03/19 01:54:25;;;;;;;11.63;5.92;;;;;;;24.34;33.36;157541.69;1733952;82;21755;-80
2021/03/19 01:57:51;;;;;;;13.03;5.45;;;;;;;24.26;33.30;157521.78;1738215;80;21173;-81
2021/03/19 02:01:18;;;;;;;8.80;5.05;;;;;;;24.20;33.32;157504.53;1746777;81;21166;-81
2021/03/19 02:04:47;;;;;;;15.05;5.10;;;;;;;24.12;33.39;157483.33;1715377;81;21360;-81
2021/03/19 02:08:14;;;;;;;14.03;5.53;;;;;;;24.14;33.43;157488.64;1721467;83;21836;-81
2021/03/19 02:11:41;;;;;;;16.77;4.83;;;;;;;24.14;33.39;157488.64;1710069;84;21368;-82
2021/03/19 02:15:07;;;;;;;13.78;5.55;;;;;;;24.15;33.50;157492.59;1725136;82;21171;-82
2021/03/19 02:18:34;;;;;;;20.30;6.53;;;;;;;24.27;33.40;157523.13;1739585;82;21669;-82
2021/03/19 02:22:00;;;;;;;16.65;6.15;;;;;;;24.22;33.45;157509.84;1728877;82;21190;-82
2021/03/19 02:25:27;;;;;;;15.55;5.83;;;;;;;23.99;33.71;157450.19;1720580;83;21700;-81
2021/03/19 02:28:53;;;;;;;18.85;5.58;;;;;;;24.14;33.52;157488.64;1725174;82;21727;-80
2021/03/19 02:32:14;;;;;;;9.90;4.85;;;;;;;24.24;33.48;157516.52;1724257;82;21176;-81
2021/03/19 02:35:02;;;;;;;5.83;4.23;;;;;;;24.34;33.27;157541.69;1739748;81;21304;-82
2021/03/19 02:37:36;;;;;;;4.85;3.52;;;;;;;24.46;33.12;157574.92;1739365;81;21249;-81
2021/03/19 02:40:14;;;;;;;4.72;3.35;;;;;;;24.25;33.22;157519.13;1739394;82;21235;-80
2021/03/19 02:42:46;;;;;;;4.35;2.80;;;;;;;24.27;33.18;157523.13;1739565;81;21815;-82
2021/03/19 02:45:21;;;;;;;5.45;3.60;;;;;;;24.19;33.23;157501.92;1752543;81;21321;-81
2021/03/19 02:47:54;;;;;;;8.93;3.92;;;;;;;24.27;33.19;157523.13;1764542;81;21824;-78
2021/03/19 02:50:27;;;;;;;6.78;4.00;;;;;;;24.22;33.16;157509.84;1723364;81;21185;-83
2021/03/19 02:53:00;;;;;;;6.40;3.98;;;;;;;24.12;33.21;157483.33;1703364;83;21338;-83
2021/03/19 02:55:32;;;;;;;6.22;4.12;;;;;;;24.01;33.35;157454.16;1727224;83;21326;-81
2021/03/19 02:58:05;;;;;;;4.83;3.62;;;;;;;23.93;33.40;157432.95;1728533;83;21365;-81
2021/03/19 03:00:37;;;;;;;6.03;3.80;;;;;;;23.94;33.38;157436.91;1722196;82;21176;-81
2021/03/19 03:03:10;;;;;;;5.37;3.67;;;;;;;23.90;33.44;157424.98;1766504;81;21384;-81
2021/03/19 03:05:43;;;;;;;6.58;3.58;;;;;;;23.90;33.45;157424.98;1765075;81;21859;-82
2021/03/19 03:08:18;;;;;;;7.97;4.35;;;;;;;23.88;33.55;157419.67;1747391;81;21352;-81
2021/03/19 03:10:54;;;;;;;7.00;4.20;;;;;;;23.87;33.48;157417.02;1726100;82;21689;-82
2021/03/19 03:13:27;;;;;;;7.75;4.03;;;;;;;23.83;33.50;157407.75;1739548;82;21269;-80
2021/03/19 03:15:59;;;;;;;7.58;4.67;;;;;;;23.80;33.61;157399.78;1739664;82;21768;-81
2021/03/19 03:18:32;;;;;;;6.12;4.33;;;;;;;23.78;33.56;157393.16;1734440;81;21875;-82
2021/03/19 03:21:05;;;;;;;8.13;4.28;;;;;;;23.78;33.57;157394.47;1756953;81;21672;-82
2021/03/19 03:23:37;;;;;;;6.87;4.60;;;;;;;23.70;33.59;157371.91;1739780;82;21387;-81
2021/03/19 03:26:10;;;;;;;9.85;5.40;;;;;;;23.67;33.64;157363.94;1739408;82;21867;-81
2021/03/19 03:28:42;;;;;;;8.95;4.62;;;;;;;23.62;33.71;157349.36;1731290;83;21221;-81
2021/03/19 03:31:15;;;;;;;11.03;5.12;;;;;;;23.60;33.77;157345.41;1734857;83;21232;-81
2021/03/19 03:33:48;;;;;;;10.30;5.10;;;;;;;23.62;33.80;157349.36;1734743;83;21197;-81
2021/03/19 03:36:20;;;;;;;8.23;4.85;;;;;;;23.60;33.79;157344.06;1730798;82;21172;-81
2021/03/19 03:38:52;;;;;;;9.35;5.80;;;;;;;23.58;33.76;157338.73;1737369;82;21374;-80
2021/03/19 03:41:27;;;;;;;11.28;5.72;;;;;;;23.57;33.77;157337.44;1721528;82;21733;-83
2021/03/19 03:43:59;;;;;;;8.60;4.87;;;;;;;23.52;33.82;157322.86;1659665;86;21709;-81
2021/03/19 03:46:32;;;;;;;9.03;5.37;;;;;;;23.45;33.88;157304.27;1666863;84;21209;-82
2021/03/19 03:49:05;;;;;;;9.83;5.85;;;;;;;23.43;33.85;157300.31;1717763;83;21208;-80
2021/03/19 03:51:37;;;;;;;11.80;5.92;;;;;;;23.41;33.94;157293.70;1731355;83;21173;-81
2021/03/19 03:54:10;;;;;;;9.00;5.42;;;;;;;23.39;33.95;157289.69;1734924;81;21247;-81
2021/03/19 03:56:43;;;;;;;9.25;5.92;;;;;;;23.45;33.96;157304.27;1696343;83;21190;-81
2021/03/19 03:59:16;;;;;;;15.43;8.05;;;;;;;23.49;33.92;157314.89;1716343;82;21230;-82
2021/03/19 04:01:49;;;;;;;9.98;6.15;;;;;;;23.46;33.89;157306.92;1702492;82;21224;-81
2021/03/19 04:04:22;;;;;;;11.45;5.83;;;;;;;23.26;41.28;157255.22;1658132;86;21181;-81
2021/03/19 04:06:54;;;;;;;11.15;6.65;;;;;;;23.43;37.05;157299.00;1699518;84;21724;-81
2021/03/19 04:09:27;;;;;;;10.20;5.45;;;;;;;23.46;36.90;157308.28;1699464;84;21317;-81
2021/03/19 04:11:59;;;;;;;9.00;5.60;;;;;;;23.57;36.63;157336.08;1699427;84;21350;-81
2021/03/19 04:14:31;;;;;;;10.30;6.42;;;;;;;23.59;36.60;157341.39;1696635;83;21325;-81
2021/03/19 04:17:13;;;;;;;8.05;4.95;;;;;;;23.54;36.72;157329.47;1698894;84;21323;-82
2021/03/19 04:19:46;;;;;;;6.95;4.37;;;;;;;23.56;36.40;157333.44;1687604;83;21345;-82
2021/03/19 04:22:18;;;;;;;8.95;4.62;;;;;;;23.55;36.57;157332.13;1714928;83;21732;-81
2021/03/19 04:24:50;;;;;;;5.95;3.92;;;;;;;23.52;36.53;157324.16;1703172;82;21240;-81
2021/03/19 04:27:26;;;;;;;7.72;4.30;;;;;;;23.51;36.63;157321.50;1666568;85;21828;-74
2021/03/19 04:30:00;;;;;;;8.55;4.65;;;;;;;23.45;36.65;157305.63;1658585;84;21357;-76
2021/03/19 04:32:33;;;;;;;6.40;4.17;;;;;;;23.41;36.72;157293.70;1673245;83;21353;-78
2021/03/19 04:35:08;;;;;;;6.83;4.22;;;;;;;23.41;36.77;157295.00;1662315;83;21345;-79
2021/03/19 04:37:41;;;;;;;7.55;4.60;;;;;;;23.43;36.87;157299.00;1641433;84;21355;-75
2021/03/19 04:40:14;;;;;;;7.47;4.20;;;;;;;23.40;36.60;157292.34;1656284;84;21254;-77
2021/03/19 04:42:48;;;;;;;7.35;4.42;;;;;;;23.40;36.64;157292.34;1668771;83;21331;-77
2021/03/19 04:45:21;;;;;;;7.42;4.22;;;;;;;23.41;36.10;157295.00;1665566;83;21377;-79
2021/03/19 04:47:54;;;;;;;6.28;4.12;;;;;;;23.33;35.32;157272.47;1659740;83;21882;-78
2021/03/19 04:50:27;;;;;;;7.03;4.28;;;;;;;23.33;35.00;157272.47;1661647;83;21279;-79
2021/03/19 04:53:00;;;;;;;5.62;3.87;;;;;;;23.29;34.81;157263.19;1661621;85;21235;-76
2021/03/19 04:55:33;;;;;;;6.25;4.12;;;;;;;23.26;34.78;157255.22;1662645;85;21343;-78
2021/03/19 04:58:06;;;;;;;7.53;4.80;;;;;;;23.30;34.56;157265.84;1663247;83;21195;-78
2021/03/19 05:00:39;;;;;;;8.13;4.62;;;;;;;23.27;34.60;157256.58;1666695;83;21220;-78
2021/03/19 05:03:12;;;;;;;9.20;4.85;;;;;;;23.27;34.55;157257.88;1662347;83;21334;-78
2021/03/19 05:05:45;;;;;;;7.55;4.40;;;;;;;23.28;34.50;157259.23;1664509;83;21342;-81
2021/03/19 05:08:19;;;;;;;7.03;4.33;;;;;;;23.25;34.54;157251.27;1666726;84;21274;-80
2021/03/19 05:10:52;;;;;;;8.15;5.20;;;;;;;23.33;34.37;157273.81;1664872;85;21332;-79
2021/03/19 05:13:25;;;;;;;8.55;5.83;;;;;;;23.33;34.26;157273.81;1673692;83;21728;-79
2021/03/19 05:15:58;;;;;;;10.53;6.15;;;;;;;23.29;34.27;157263.19;1680206;83;21266;-79
2021/03/19 05:18:30;;;;;;;11.78;6.80;;;;;;;23.31;34.33;157268.50;1674596;83;21318;-77
2021/03/19 05:21:04;;;;;;;13.38;6.67;;;;;;;23.26;34.34;157255.22;1684084;83;21189;-78
2021/03/19 05:23:37;;;;;;;11.53;6.50;;;;;;;23.22;34.38;157244.66;1685724;83;21228;-78
2021/03/19 05:26:09;;;;;;;10.60;6.60;;;;;;;23.17;34.50;157230.08;1692424;83;21876;-78
2021/03/19 05:28:42;;;;;;;14.45;7.05;;;;;;;23.14;34.54;157222.12;1661422;84;21202;-79
2021/03/19 05:31:14;;;;;;;10.72;6.20;;;;;;;23.17;34.51;157231.38;1668108;83;21305;-78
2021/03/19 05:33:51;;;;;;;11.90;7.00;;;;;;;23.17;34.51;157230.08;1673176;85;21228;-79
2021/03/19 05:36:27;;;;;;;12.93;7.10;;;;;;;23.21;34.54;157242.00;1697873;83;21172;-79
2021/03/19 05:38:59;;;;;;;12.63;6.92;;;;;;;23.21;34.47;157242.00;1714366;83;21186;-79
2021/03/19 05:41:34;;;;;;;13.60;7.12;;;;;;;23.21;34.47;157242.00;1680696;83;21801;-79
2021/03/19 05:44:20;;;;;;;15.85;7.03;;;;;;;23.24;34.60;157248.61;1727672;82;21302;-77
2021/03/19 05:47:03;;;;;;;18.17;7.47;;;;;;;23.32;34.51;157271.16;1736392;82;21185;-76
2021/03/19 05:49:36;;;;;;;16.77;6.85;;;;;;;23.42;34.41;157297.66;1738862;82;21162;-77
2021/03/19 05:52:15;;;;;;;18.87;7.62;;;;;;;23.50;34.43;157317.55;1745172;81;21349;-78
2021/03/19 05:54:48;;;;;;;22.60;7.67;;;;;;;23.56;34.26;157333.44;1725381;81;21828;-76
2021/03/19 05:57:27;;;;;;;19.65;7.58;;;;;;;23.50;34.90;157318.84;1716892;81;21348;-80
2021/03/19 06:00:01;;;;;;;22.20;8.48;;;;;;;23.54;35.13;157328.17;1718995;81;21360;-80
2021/03/19 06:02:41;;;;;;;21.05;7.95;;;;;;;23.65;35.21;157358.63;1678524;83;21236;-79
2021/03/19 06:05:26;;;;;;;26.02;8.98;;;;;;;23.70;35.07;157371.91;1654190;84;21235;-78
2021/03/19 06:08:09;;;;;;;20.20;7.67;;;;;;;23.74;35.19;157382.48;1716405;81;21251;-79
2021/03/19 06:10:49;;;;;;;26.82;9.08;;;;;;;23.79;35.41;157397.13;1683172;83;21220;-78
2021/03/19 06:13:29;;;;;;;19.62;7.92;;;;;;;23.85;35.25;157413.06;1679675;83;21330;-74
2021/03/19 06:16:35;;;;;;;;;;;;;;;23.87;35.12;157417.02;1650823;84;21942;-79
2021/03/19 06:19:29;;;;;;;22.48;9.00;;;;;;;23.86;35.05;157414.36;1653745;85;20296;-78
2021/03/19 06:22:06;;;;;;;19.87;9.40;;;;;;;23.88;35.11;157419.67;1647582;84;21244;-83
2021/03/19 06:24:42;;;;;;;23.52;10.10;;;;;;;23.82;35.15;157405.09;1714225;81;21860;-77
2021/03/19 06:27:38;;;;;;;20.90;8.15;;;;;;;23.80;35.07;157398.47;1679379;84;21319;-79
2021/03/19 06:30:24;;;;;;;18.73;8.80;;;;;;;23.74;35.17;157383.84;1653617;83;21227;-80
2021/03/19 06:33:29;;;;;;;14.50;6.85;;;;;;;23.70;35.21;157373.22;1660793;85;21385;-80
2021/03/19 06:36:18;;;;;;;13.18;6.95;;;;;;;23.68;35.10;157366.59;1663153;83;21172;-81
2021/03/19 06:39:06;;;;;;;16.73;7.00;;;;;;;23.63;35.18;157353.31;1662744;83;21208;-81
2021/03/19 06:41:40;;;;;;;15.00;7.50;;;;;;;23.60;35.26;157345.41;1647621;83;21849;-85
2021/03/19 06:44:24;;;;;;;18.62;6.47;;;;;;;23.56;34.75;157334.78;1663957;83;21373;-82
2021/03/19 06:47:04;;;;;;;13.48;7.15;;;;;;;23.53;34.92;157326.81;1665584;83;21227;-84
2021/03/19 06:49:53;;;;;;;19.47;7.67;;;;;;;23.58;34.87;157340.09;1664897;84;21365;-86
2021/03/19 06:52:28;;;;;;;13.72;7.00;;;;;;;23.62;34.74;157350.66;1665265;83;21224;-82
2021/03/19 06:55:05;;;;;;;11.30;6.65;;;;;;;23.69;34.55;157369.25;1661368;83;21703;-83
2021/03/19 06:57:47;;;;;;;18.67;8.03;;;;;;;23.68;34.47;157366.59;1660830;83;21869;-83
2021/03/19 07:00:42;;;;;;;13.83;7.70;;;;;;;23.70;34.43;157371.91;1663399;83;21323;-86
2021/03/19 07:03:47;;;;;;;14.60;8.05;;;;;;;23.75;34.32;157385.14;1662043;83;21184;-81
2021/03/19 07:06:57;;;;;;;16.95;8.63;;;;;;;23.74;34.25;157382.48;1660711;83;21362;-84
2021/03/19 07:09:57;;;;;;;18.60;8.43;;;;;;;23.78;34.16;157394.47;1663992;83;21389;-84
2021/03/19 07:12:44;;;;;;;22.05;8.23;;;;;;;23.90;34.23;157426.28;1663084;83;21362;-85
2021/03/19 07:15:30;;;;;;;20.62;9.40;;;;;;;24.04;34.08;157463.42;1663162;83;22083;-83
2021/03/19 07:18:25;;;;;;;21.87;9.40;;;;;;;24.14;33.90;157488.64;1660273;83;21362;-83
2021/03/19 07:21:34;;;;;;;18.15;9.03;;;;;;;24.25;33.92;157517.81;1661364;85;21239;-84
2021/03/19 07:24:28;;;;;;;13.68;7.53;;;;;;;24.38;33.78;157553.61;1661977;85;21211;-84
2021/03/19 07:27:24;;;;;;;14.65;6.95;;;;;;;24.45;33.57;157572.27;1654429;85;21346;-83
2021/03/19 07:30:40;;;;;;;12.88;7.22;;;;;;;24.51;33.55;157586.86;1664553;83;21842;-82
2021/03/19 07:33:34;;;;;;;14.43;7.67;;;;;;;24.59;33.51;157609.42;1673535;83;21243;-84
2021/03/19 07:36:45;;;;;;;15.20;6.90;;;;;;;24.62;33.55;157616.03;1642256;85;21199;-84
2021/03/19 07:39:54;;;;;;;13.08;6.53;;;;;;;24.71;33.31;157641.22;1674296;83;21706;-82
2021/03/19 07:43:00;;;;;;;12.10;6.55;;;;;;;24.88;33.23;157687.66;1638025;85;21203;-83
2021/03/19 07:46:00;;;;;;;14.40;7.55;;;;;;;24.97;33.17;157710.22;1644685;84;21230;-84
2021/03/19 07:58:19;;;;;;;12.20;7.22;;;;;;;24.96;32.96;157707.56;1571672;88;21211;-80
2021/03/19 08:01:05;;;;;;;;;;;;;;;24.93;32.92;157699.64;1578999;87;21238;-81
2021/03/19 08:03:38;;;;;;;8.70;5.83;;;;;;;24.85;32.88;157679.72;1624818;86;20599;-80
2021/03/19 08:06:17;;;;;;;10.82;6.20;;;;;;;24.78;33.01;157661.12;1622555;86;21215;-81
2021/03/19 08:08:57;;;;;;;8.30;5.47;;;;;;;24.67;32.96;157631.94;1618784;85;21215;-79
2021/03/19 08:11:44;;;;;;;8.88;6.12;;;;;;;24.52;33.10;157589.52;1618557;86;21730;-79
2021/03/19 08:14:39;;;;;;;10.75;6.03;;;;;;;24.47;33.81;157576.22;1617991;85;22331;-80
2021/03/19 08:17:34;;;;;;;9.43;5.90;;;;;;;24.49;34.00;157582.84;1619278;86;21310;-79
2021/03/19 08:20:25;;;;;;;12.00;6.90;;;;;;;24.45;34.13;157572.27;1623749;85;21395;-82
2021/03/19 08:23:23;;;;;;;10.35;5.97;;;;;;;25.77;32.72;157925.38;1590560;87;21278;-83
2021/03/19 08:25:56;;;;;;;8.38;5.87;;;;;;;25.68;32.65;157901.44;1625589;85;21345;-84
2021/03/19 08:28:39;;;;;;;9.13;6.50;;;;;;;25.52;33.01;157856.33;1627887;85;21353;-83
2021/03/19 08:31:50;;;;;;;8.75;5.87;;;;;;;25.55;33.22;157865.61;1622030;86;21357;-83
2021/03/19 08:34:58;;;;;;;8.45;5.75;;;;;;;25.55;32.84;157864.25;1622934;85;21733;-83
2021/03/19 08:38:05;;;;;;;10.50;6.45;;;;;;;25.46;32.89;157840.38;1621432;86;21789;-82
2021/03/19 08:40:46;;;;;;;9.08;6.17;;;;;;;24.06;34.35;157467.44;1612491;86;21239;-82
2021/03/19 08:43:41;;;;;;;10.38;6.62;;;;;;;23.89;34.93;157423.69;1624677;85;21428;-82
2021/03/19 08:46:32;;;;;;;7.92;5.60;;;;;;;23.93;35.18;157434.25;1624555;86;21278;-79
2021/03/19 08:49:09;;;;;;;13.25;6.72;;;;;;;23.96;35.08;157442.22;1625580;85;21951;-80
2021/03/19 08:51:46;;;;;;;17.77;7.75;;;;;;;24.04;35.26;157463.42;1613872;86;21226;-84
2021/03/19 08:54:30;;;;;;;12.63;6.80;;;;;;;24.10;35.20;157478.02;1631069;85;21243;-81
2021/03/19 08:57:15;;;;;;;18.42;9.70;;;;;;;24.19;35.13;157501.92;1627179;85;21789;-80
2021/03/19 08:59:51;;;;;;;20.45;9.53;;;;;;;24.20;34.86;157504.53;1626543;85;21211;-80
2021/03/19 09:02:43;;;;;;;15.75;8.43;;;;;;;24.24;35.09;157515.16;1630336;85;21251;-80
2021/03/19 09:05:21;;;;;;;16.35;8.13;;;;;;;24.22;35.09;157511.19;1626121;85;21369;-78
2021/03/19 09:08:18;;;;;;;17.23;8.83;;;;;;;24.30;35.24;157531.09;1627177;85;21408;-79
2021/03/19 09:11:01;;;;;;;17.35;9.05;;;;;;;24.30;35.06;157531.09;1655725;85;21323;-80
2021/03/19 09:13:35;;;;;;;15.95;8.55;;;;;;;24.33;35.01;157539.02;1653588;85;21337;-81
2021/03/19 09:16:49;;;;;;;14.50;8.55;;;;;;;24.37;35.07;157549.66;1662642;86;21204;-85
2021/03/19 09:19:41;;;;;;;13.40;7.62;;;;;;;24.45;35.16;157570.91;1681850;84;21253;-81
2021/03/19 09:22:28;;;;;;;12.63;6.95;;;;;;;24.52;34.89;157589.52;1649249;86;21711;-78
2021/03/19 09:25:17;;;;;;;13.25;7.33;;;;;;;24.48;34.20;157578.87;1647683;85;21387;-79
2021/03/19 09:28:02;;;;;;;15.35;8.10;;;;;;;24.46;33.83;157573.56;1642537;86;21392;-78
2021/03/19 09:30:50;;;;;;;13.45;9.05;;;;;;;24.41;33.71;157560.28;1665440;85;21782;-79
2021/03/19 09:33:52;;;;;;;22.73;11.57;;;;;;;24.38;33.88;157553.61;1670944;84;21274;-80
2021/03/19 09:36:55;;;;;;;15.83;9.48;;;;;;;24.56;33.72;157600.09;1674044;85;21309;-77
2021/03/19 09:40:05;;;;;;;24.05;10.63;;;;;;;24.74;33.50;157649.19;1689165;83;21721;-81
2021/03/19 09:42:47;;;;;;;17.35;10.08;;;;;;;24.75;33.55;157653.20;1660967;86;21197;-78
2021/03/19 09:45:27;;;;;;;25.17;12.88;;;;;;;24.76;33.51;157655.86;1661032;86;21228;-78
2021/03/19 09:48:21;;;;;;;25.90;13.18;;;;;;;24.71;33.35;157641.22;1661036;85;21712;-79
2021/03/19 09:50:59;;;;;;;22.02;11.90;;;;;;;24.71;33.62;157642.56;1648567;86;21264;-78
2021/03/19 09:53:36;;;;;;;25.50;12.53;;;;;;;24.97;33.60;157711.58;1646257;87;21849;-78
2021/03/19 09:56:24;;;;;;;22.15;11.15;;;;;;;25.06;33.27;157735.45;1646418;87;21250;-78
2021/03/19 09:58:59;;;;;;;25.43;13.22;;;;;;;25.25;33.04;157784.63;1646343;87;21716;-78
2021/03/19 10:01:44;;;;;;;25.82;11.05;;;;;;;25.29;33.13;157796.56;1658498;85;21210;-78
2021/03/19 10:04:38;;;;;;;25.88;9.35;;;;;;;25.44;33.16;157835.05;1646185;87;21337;-78
2021/03/19 10:07:22;;;;;;;20.82;9.33;;;;;;;25.71;32.89;157908.06;1636750;88;21252;-78
2021/03/19 10:09:57;;;;;;;21.33;8.53;;;;;;;26.00;32.54;157985.16;1627674;88;21209;-79
2021/03/19 10:12:35;;;;;;;24.98;7.67;;;;;;;26.07;32.46;158003.75;1631988;88;21221;-78
2021/03/19 10:19:06;;;;;;;17.02;7.55;;;;;;;26.04;32.32;157995.81;1631807;88;21367;-78
2021/03/19 10:21:48;;;;;;;11.22;7.22;;;;;;;25.94;32.42;157970.56;1631830;88;21344;-78
2021/03/19 10:24:28;;;;;;;14.87;7.45;;;;;;;25.77;32.71;157925.38;1627709;88;21209;-78
2021/03/19 10:27:05;;;;;;;15.00;6.50;;;;;;;25.98;32.53;157979.84;1631815;88;21852;-78
2021/03/19 10:29:39;;;;;;;12.30;6.97;;;;;;;25.98;32.48;157979.84;1622483;87;21333;-78
2021/03/19 10:32:16;;;;;;;12.05;7.40;;;;;;;25.65;32.39;157892.16;1635015;88;21209;-78
2021/03/19 10:34:59;;;;;;;11.95;7.30;;;;;;;25.87;32.06;157950.63;1646656;86;21366;-78
2021/03/19 10:37:57;;;;;;;10.18;6.97;;;;;;;25.80;32.12;157932.06;1654239;87;21271;-78
2021/03/19 10:40:38;;;;;;;10.75;6.55;;;;;;;25.77;32.20;157925.38;1651561;87;22059;-78
2021/03/19 10:43:24;;;;;;;10.20;6.30;;;;;;;25.83;32.26;157941.34;1651101;87;21793;-78
2021/03/19 10:46:06;;;;;;;9.88;6.72;;;;;;;25.84;32.11;157944.00;1653753;85;21397;-78
2021/03/19 10:48:48;;;;;;;8.58;5.83;;;;;;;25.80;31.93;157932.06;1632562;86;21320;-78
2021/03/19 10:51:52;;;;;;;9.18;6.20;;;;;;;25.78;32.20;157926.73;1654339;87;21382;-78
2021/03/19 10:54:33;;;;;;;13.43;7.92;;;;;;;25.89;32.25;157955.95;1654441;87;21398;-78
2021/03/19 10:57:34;;;;;;;13.38;7.10;;;;;;;25.94;32.16;157970.56;1654457;87;21394;-78
2021/03/19 11:00:32;;;;;;;14.60;9.63;;;;;;;26.02;31.94;157991.78;1654265;87;21370;-78
2021/03/19 11:03:06;;;;;;;10.85;7.15;;;;;;;26.10;32.05;158011.72;1654314;87;21220;-78
2021/03/19 11:06:01;;;;;;;9.78;6.42;;;;;;;26.12;31.88;158018.34;1649518;87;21216;-78
2021/03/19 11:30:30;;;;;;;9.93;6.03;;;;;;;25.92;31.40;157963.94;1654627;87;21168;-77
2021/03/19 11:33:12;;;;;;;10.32;6.20;;;;;;;26.24;31.07;158048.92;1654422;87;21354;-78
2021/03/19 11:36:03;;;;;;;14.00;7.28;;;;;;;26.12;31.06;158018.34;1688609;84;21222;-78
2021/03/19 11:38:40;;;;;;;10.75;6.03;;;;;;;26.57;31.04;158139.31;1707874;84;21239;-79
2021/03/19 11:41:31;;;;;;;10.23;6.87;;;;;;;26.76;30.66;158188.50;1707760;84;21344;-78
2021/03/19 11:44:05;;;;;;;9.35;6.10;;;;;;;26.96;30.32;158243.00;1707738;84;21190;-77
2021/03/19 11:46:38;;;;;;;12.40;6.75;;;;;;;27.24;30.33;158316.16;1707706;82;21340;-77
2021/03/19 11:49:14;;;;;;;9.48;6.50;;;;;;;27.30;30.22;158332.08;1707896;84;21230;-78
2021/03/19 11:51:47;;;;;;;10.63;6.25;;;;;;;27.26;29.77;158321.42;1673606;84;21338;-78
2021/03/19 11:54:20;;;;;;;8.10;6.22;;;;;;;27.29;29.99;158329.42;1663814;86;21345;-78
2021/03/19 11:56:53;;;;;;;10.98;6.40;;;;;;;27.36;29.49;158349.38;1644936;87;21746;-78
2021/03/19 11:59:26;;;;;;;13.45;8.00;;;;;;;27.28;29.86;158326.75;1663708;86;21180;-77
2021/03/19 12:02:01;;;;;;;10.10;6.70;;;;;;;27.36;29.71;158349.38;1632520;88;21728;-78
2021/03/19 12:04:33;;;;;;;9.58;6.40;;;;;;;27.56;29.13;158403.89;1658645;86;21338;-78
2021/03/19 12:07:06;;;;;;;8.83;5.70;;;;;;;27.55;28.78;158401.23;1658644;86;21802;-78
2021/03/19 12:09:39;;;;;;;7.58;5.10;;;;;;;27.51;29.43;158389.27;1658640;86;21354;-78
2021/03/19 12:12:14;;;;;;;7.67;5.78;;;;;;;27.52;28.80;158393.23;1658649;86;21338;-78
2021/03/19 12:14:47;;;;;;;11.48;8.00;;;;;;;27.45;29.27;158371.98;1658636;86;21354;-78
2021/03/19 12:17:22;;;;;;;10.95;7.87;;;;;;;27.63;29.35;158421.19;1658665;86;21386;-78
2021/03/19 12:19:55;;;;;;;11.18;6.97;;;;;;;27.94;29.43;158503.67;1658473;86;21873;-79
2021/03/19 12:22:28;;;;;;;8.63;5.87;;;;;;;28.30;29.32;158599.52;1658778;86;21355;-78
2021/03/19 12:25:01;;;;;;;11.25;6.85;;;;;;;28.65;29.11;158695.33;1658776;86;21334;-78
2021/03/19 12:27:33;;;;;;;10.00;6.25;;;;;;;28.88;28.79;158756.61;1658666;86;21385;-78
2021/03/19 12:30:08;;;;;;;10.13;6.40;;;;;;;29.03;28.30;158795.20;1658613;86;21252;-77
2021/03/19 12:32:41;;;;;;;12.75;6.03;;;;;;;29.14;28.34;158824.48;1658481;86;21719;-78
2021/03/19 12:35:15;;;;;;;12.40;5.20;;;;;;;29.26;27.93;158856.44;1658762;86;21342;-78
2021/03/19 12:37:51;;;;;;;8.13;5.55;;;;;;;29.32;27.91;158873.75;1658674;86;21259;-78
2021/03/19 12:40:26;;;;;;;9.85;5.95;;;;;;;29.45;27.64;158909.75;1658669;86;21263;-78
2021/03/19 12:42:58;;;;;;;13.30;6.80;;;;;;;29.38;27.44;158889.81;1658666;86;21334;-78
2021/03/19 12:45:33;;;;;;;18.60;8.43;;;;;;;29.46;27.68;158911.09;1658678;85;21191;-78
2021/03/19 12:48:07;;;;;;;11.75;7.65;;;;;;;29.63;27.90;158956.34;1658614;86;21928;-78
2021/03/19 12:50:39;;;;;;;15.40;7.20;;;;;;;29.72;27.70;158981.67;1658601;86;21901;-78
2021/03/19 12:53:16;;;;;;;11.63;6.08;;;;;;;29.68;27.74;158969.69;1658637;86;21212;-78
2021/03/19 12:55:49;;;;;;;11.60;6.28;;;;;;;29.74;27.73;158985.70;1658671;86;21342;-78
2021/03/19 12:58:23;;;;;;;11.55;6.08;;;;;;;29.80;27.55;159001.66;1658599;86;21358;-78
2021/03/19 13:00:56;;;;;;;13.55;6.90;;;;;;;29.89;27.55;159026.98;1658545;86;21390;-78
2021/03/19 13:03:30;;;;;;;11.90;6.33;;;;;;;29.95;27.46;159041.69;1658621;86;21338;-78